Terminal Aerodrome Forecast
Issued by NWS

Home | Current Version | Previous Version | Graphics & Text | Print | Product List | Glossary On
Versions: 1 2 3 4 5 6 7 8 9 10 11 12 13 14
147
FTUS43 KBIS 100528
TAFMOT
TAF
KMOT 100528Z 1006/1106 27005KT P6SM SCT150
     FM101300 VRB03KT P6SM BKN080
     FM101800 11008KT P6SM VCSH BKN040
     FM102300 09009KT P6SM VCSH OVC015
     FM110000 09008KT P6SM VCSH OVC015
     FM110500 08007KT 3SM -SN BR OVC015=

USA.gov is the U.S. government's official web portal to all federal, state and local government web resources and services.